createdAt,value
2023-02-14T00:01:30.875Z,23.05
2023-02-14T00:03:33.728Z,26.08
2023-02-14T00:05:36.478Z,20.85
2023-02-14T00:07:39.245Z,23.63
2023-02-14T00:09:42.039Z,21.90
2023-02-14T00:11:45.043Z,23.85
2023-02-14T00:14:01.878Z,21.35
2023-02-14T00:16:04.855Z,25.38
2023-02-14T00:18:09.044Z,21.00
2023-02-14T00:20:12.666Z,23.00
2023-02-14T00:22:15.528Z,23.65
2023-02-14T00:24:20.023Z,25.35
2023-02-14T00:26:22.848Z,20.40
2023-02-14T00:28:25.634Z,21.83
2023-02-14T00:30:28.539Z,23.45
2023-02-14T00:32:31.378Z,23.92
2023-02-14T00:34:36.568Z,23.85
2023-02-14T00:36:39.786Z,23.80
2023-02-14T00:38:42.560Z,23.48
2023-02-14T00:40:45.359Z,25.63
2023-02-14T00:42:48.145Z,25.15
2023-02-14T00:44:51.069Z,23.10
2023-02-14T00:46:56.069Z,25.15
2023-02-14T00:48:59.488Z,22.77
2023-02-14T00:51:03.606Z,23.38
2023-02-14T00:53:06.472Z,23.08
2023-02-14T00:55:09.445Z,21.15
2023-02-14T00:57:12.334Z,26.65
2023-02-14T00:59:15.160Z,25.50
2023-02-14T01:01:18.805Z,32.33
2023-02-14T01:03:21.832Z,24.52
2023-02-14T01:05:24.605Z,26.38
2023-02-14T01:07:28.797Z,24.95
2023-02-14T01:09:31.623Z,29.17
2023-02-14T01:11:40.377Z,24.70
2023-02-14T01:13:45.448Z,26.85
2023-02-14T01:15:50.703Z,25.87
2023-02-14T01:17:53.541Z,25.98
2023-02-14T01:19:57.420Z,26.77
2023-02-14T01:22:00.218Z,26.67
2023-02-14T01:24:06.766Z,25.60
2023-02-14T01:26:11.163Z,31.20
2023-02-14T01:28:13.912Z,28.63
2023-02-14T01:30:17.450Z,27.17
2023-02-14T01:32:20.339Z,29.20
2023-02-14T01:34:23.220Z,28.60
2023-02-14T01:36:28.279Z,30.95
2023-02-14T01:38:32.249Z,27.58
2023-02-14T01:40:42.844Z,31.83
2023-02-14T01:42:45.641Z,27.80
2023-02-14T01:44:57.740Z,28.98
2023-02-14T01:47:03.783Z,27.48
2023-02-14T01:49:12.706Z,29.35
2023-02-14T01:51:19.693Z,30.40
2023-02-14T01:53:27.215Z,30.27
2023-02-14T01:55:33.199Z,32.38
2023-02-14T01:57:41.752Z,27.30
2023-02-14T01:59:49.950Z,29.17
2023-02-14T02:01:53.939Z,29.58
2023-02-14T02:04:00.790Z,29.93
2023-02-14T02:06:12.388Z,29.52
2023-02-14T02:08:15.799Z,30.30
2023-02-14T02:12:25.807Z,31.67
2023-02-14T02:14:30.064Z,31.55
2023-02-14T02:16:50.033Z,31.23
2023-02-14T02:19:10.398Z,30.48
2023-02-14T02:21:45.008Z,30.15
2023-02-14T02:24:24.141Z,28.75
2023-02-14T02:26:51.589Z,33.58
2023-02-14T02:29:23.444Z,31.15
2023-02-14T02:31:53.641Z,31.08
2023-02-14T02:34:13.598Z,32.17
2023-02-14T02:36:37.813Z,33.22
2023-02-14T02:39:04.927Z,29.08
2023-02-14T02:41:16.929Z,32.35
2023-02-14T02:43:36.134Z,33.72
2023-02-14T02:46:05.584Z,32.08
2023-02-14T02:48:16.218Z,32.90
2023-02-14T02:50:45.160Z,33.08
2023-02-14T02:53:06.324Z,33.88
2023-02-14T02:55:18.659Z,30.13
2023-02-14T02:57:26.241Z,30.70
2023-02-14T02:59:32.256Z,32.65
2023-02-14T03:01:39.205Z,33.40
2023-02-14T03:04:03.693Z,33.63
2023-02-14T03:06:06.890Z,35.38
2023-02-14T03:08:10.981Z,36.33
2023-02-14T03:10:17.715Z,34.03
2023-02-14T03:12:45.066Z,34.90
2023-02-14T03:14:56.561Z,32.50
2023-02-14T03:17:05.936Z,33.75
2023-02-14T03:19:38.889Z,34.45
2023-02-14T03:21:47.311Z,40.75
2023-02-14T03:23:57.919Z,35.38
2023-02-14T03:26:08.955Z,36.90
2023-02-14T03:28:19.292Z,33.83
2023-02-14T03:30:36.621Z,33.22
2023-02-14T03:32:44.740Z,31.95
2023-02-14T03:34:54.550Z,37.22
2023-02-14T03:37:03.510Z,35.30
2023-02-14T03:39:13.941Z,35.97
2023-02-14T03:41:22.176Z,38.10
2023-02-14T03:43:29.462Z,38.67
2023-02-14T03:45:38.093Z,38.33
2023-02-14T03:47:44.689Z,35.47
2023-02-14T03:49:51.981Z,38.65
2023-02-14T03:51:57.288Z,38.70
2023-02-14T03:54:00.558Z,35.03
2023-02-14T03:56:11.299Z,37.88
2023-02-14T03:58:20.345Z,38.05
2023-02-14T04:00:23.740Z,36.97
2023-02-14T04:02:32.176Z,37.67
2023-02-14T04:04:39.461Z,31.73
2023-02-14T04:06:42.244Z,34.00
2023-02-14T04:08:45.006Z,37.30
2023-02-14T04:10:47.834Z,36.40
2023-02-14T04:12:52.297Z,37.03
2023-02-14T04:14:55.037Z,43.03
2023-02-14T04:17:15.450Z,41.60
2023-02-14T04:19:23.998Z,36.40
2023-02-14T04:21:26.930Z,34.58
2023-02-14T04:23:29.725Z,38.45
2023-02-14T04:25:32.516Z,38.88
2023-02-14T04:27:35.300Z,39.22
2023-02-14T04:29:41.281Z,39.10
2023-02-14T04:31:44.114Z,41.75
2023-02-14T04:33:48.132Z,38.15
2023-02-14T04:35:50.923Z,36.78
2023-02-14T04:37:54.596Z,37.08
2023-02-14T04:39:57.377Z,37.10
2023-02-14T04:42:00.213Z,37.92
2023-02-14T04:44:03.014Z,44.13
2023-02-14T04:46:07.210Z,40.40
2023-02-14T04:48:10.305Z,38.63
2023-02-14T04:50:13.876Z,39.25
2023-02-14T04:52:16.790Z,39.70
2023-02-14T04:54:19.597Z,40.80
2023-02-14T04:56:22.409Z,42.55
2023-02-14T04:58:25.187Z,34.92
2023-02-14T05:00:27.992Z,36.38
2023-02-14T05:02:32.051Z,37.45
2023-02-14T05:04:34.849Z,41.60
2023-02-14T05:06:37.691Z,39.22
2023-02-14T05:08:40.497Z,40.00
2023-02-14T05:10:43.347Z,38.65
2023-02-14T05:12:46.107Z,37.45
2023-02-14T05:14:48.922Z,42.10
2023-02-14T05:16:51.829Z,38.58
2023-02-14T05:18:56.012Z,38.78
2023-02-14T05:20:59.199Z,39.35
2023-02-14T05:23:03.434Z,38.08
2023-02-14T05:25:06.852Z,40.20
2023-02-14T05:27:11.592Z,37.22
2023-02-14T05:29:14.366Z,41.60
2023-02-14T05:31:17.435Z,43.33
2023-02-14T05:33:20.380Z,41.08
2023-02-14T05:35:24.985Z,38.10
2023-02-14T05:37:27.792Z,39.83
2023-02-14T05:39:30.839Z,35.15
2023-02-14T05:41:33.653Z,38.38
2023-02-14T05:43:36.396Z,36.22
2023-02-14T05:45:39.420Z,35.65
2023-02-14T05:47:42.305Z,39.78
2023-02-14T05:49:45.008Z,38.83
2023-02-14T05:51:49.153Z,37.90
2023-02-14T05:53:52.052Z,41.28
2023-02-14T05:55:54.806Z,35.92
2023-02-14T05:57:57.681Z,38.08
2023-02-14T06:00:00.461Z,38.72
2023-02-14T06:02:03.362Z,39.42
2023-02-14T06:04:06.238Z,35.78
2023-02-14T06:06:09.090Z,38.50
2023-02-14T06:08:13.223Z,40.72
2023-02-14T06:10:16.213Z,36.05
2023-02-14T06:12:19.011Z,34.72
2023-02-14T06:14:21.834Z,39.58
2023-02-14T06:16:24.693Z,39.35
2023-02-14T06:18:29.547Z,40.60
2023-02-14T06:20:32.745Z,38.47
2023-02-14T06:22:35.567Z,40.28
2023-02-14T06:24:39.699Z,42.47
2023-02-14T06:26:42.613Z,43.60
2023-02-14T06:28:45.463Z,38.45
2023-02-14T06:30:48.480Z,44.47
2023-02-14T06:32:51.473Z,39.42
2023-02-14T06:34:54.314Z,43.42
2023-02-14T06:36:57.090Z,39.45
2023-02-14T06:39:00.028Z,40.58
2023-02-14T06:41:06.741Z,42.75
2023-02-14T06:43:09.527Z,39.80
2023-02-14T06:45:12.256Z,34.50
2023-02-14T06:47:15.304Z,37.00
2023-02-14T06:49:18.121Z,37.70
2023-02-14T06:51:20.913Z,37.75
2023-02-14T06:53:23.750Z,38.65
2023-02-14T06:55:26.770Z,34.35
2023-02-14T06:57:30.921Z,38.20
2023-02-14T06:59:33.724Z,39.92
2023-02-14T07:01:36.573Z,37.35
2023-02-14T07:03:39.399Z,32.72
2023-02-14T07:05:42.242Z,34.40
2023-02-14T07:07:44.978Z,33.33
2023-02-14T07:09:47.763Z,35.05
2023-02-14T07:11:50.569Z,35.28
2023-02-14T07:13:54.652Z,33.72
2023-02-14T07:15:57.533Z,32.17
2023-02-14T07:18:00.320Z,33.33
2023-02-14T07:20:03.524Z,30.95
2023-02-14T07:22:06.416Z,34.70
2023-02-14T07:24:09.225Z,36.53
2023-02-14T07:26:12.143Z,33.20
2023-02-14T07:28:14.953Z,35.08
2023-02-14T07:30:19.525Z,33.63
2023-02-14T07:32:23.340Z,34.22
2023-02-14T07:34:27.177Z,36.65
2023-02-14T07:36:30.025Z,36.33
2023-02-14T07:38:32.815Z,35.60
2023-02-14T07:40:35.624Z,39.65
2023-02-14T07:42:38.383Z,36.95
2023-02-14T07:44:41.216Z,34.55
2023-02-14T07:46:45.376Z,35.72
2023-02-14T07:48:48.811Z,33.63
2023-02-14T07:50:51.609Z,36.30
2023-02-14T07:52:54.438Z,34.55
2023-02-14T07:54:57.282Z,37.22
2023-02-14T07:57:00.154Z,36.65
2023-02-14T07:59:02.982Z,35.65
2023-02-14T08:01:05.904Z,34.20
2023-02-14T08:03:10.076Z,37.42
2023-02-14T08:05:12.945Z,34.78
2023-02-14T08:07:15.769Z,37.10
2023-02-14T08:09:24.577Z,33.92
2023-02-14T08:11:44.586Z,36.22
2023-02-14T08:13:47.402Z,35.55
2023-02-14T08:16:05.357Z,38.15
2023-02-14T08:18:08.254Z,36.05
2023-02-14T08:20:13.659Z,33.80
2023-02-14T08:22:18.150Z,35.33
2023-02-14T08:24:20.974Z,33.10
2023-02-14T08:26:23.787Z,32.47
2023-02-14T08:28:27.467Z,30.73
2023-02-14T08:30:30.727Z,33.30
2023-02-14T08:32:33.784Z,38.30
2023-02-14T08:34:36.676Z,36.17
2023-02-14T08:36:40.888Z,38.75
2023-02-14T08:38:45.106Z,31.48
2023-02-14T08:40:48.281Z,36.65
2023-02-14T08:42:51.162Z,33.08
2023-02-14T08:44:53.901Z,35.20
2023-02-14T08:46:56.914Z,41.45
2023-02-14T08:48:59.972Z,41.38
2023-02-14T08:51:06.135Z,41.88
2023-02-14T08:53:12.021Z,40.03
2023-02-14T08:55:14.889Z,39.33
2023-02-14T08:57:18.219Z,33.90
2023-02-14T08:59:21.083Z,37.55
2023-02-14T09:01:27.669Z,41.20
2023-02-14T09:03:30.488Z,38.03
2023-02-14T09:05:34.543Z,36.75
2023-02-14T09:07:37.716Z,36.83
2023-02-14T09:09:41.952Z,44.45
2023-02-14T09:11:44.742Z,37.13
2023-02-14T09:13:48.567Z,40.13
2023-02-14T09:15:51.493Z,44.55
2023-02-14T09:17:54.342Z,48.95
2023-02-14T09:19:57.174Z,39.40
2023-02-14T09:22:00.329Z,42.33
2023-02-14T09:24:03.198Z,47.33
2023-02-14T09:26:10.163Z,47.08
2023-02-14T09:28:12.941Z,51.10
2023-02-14T09:30:16.813Z,47.08
2023-02-14T09:32:20.135Z,52.80
2023-02-14T09:34:23.198Z,55.38
2023-02-14T09:36:43.923Z,56.45
2023-02-14T09:38:46.747Z,49.38
2023-02-14T09:40:50.390Z,42.13
2023-02-14T09:43:02.115Z,42.92
2023-02-14T09:45:08.029Z,47.10
2023-02-14T09:47:20.234Z,47.50
2023-02-14T09:49:33.173Z,40.42
2023-02-14T09:51:37.431Z,44.83
2023-02-14T09:53:44.992Z,44.05
2023-02-14T09:55:59.259Z,39.78
2023-02-14T09:58:08.748Z,41.15
2023-02-14T10:00:21.083Z,41.92
2023-02-14T10:02:40.449Z,39.90
2023-02-14T10:04:53.112Z,47.95
2023-02-14T10:07:02.597Z,39.30
2023-02-14T10:09:14.717Z,42.45
2023-02-14T10:11:21.583Z,39.13
2023-02-14T10:13:31.203Z,36.97
2023-02-14T10:15:37.818Z,46.55
2023-02-14T10:17:44.690Z,41.47
2023-02-14T10:19:53.208Z,40.78
2023-02-14T10:22:00.923Z,48.33
2023-02-14T10:24:12.807Z,45.33
2023-02-14T10:26:20.670Z,44.55
2023-02-14T10:28:32.192Z,38.08
2023-02-14T10:30:40.095Z,40.58
2023-02-14T10:32:47.434Z,45.05
2023-02-14T10:34:52.503Z,41.40
2023-02-14T10:37:13.060Z,39.67
2023-02-14T10:39:39.714Z,47.78
2023-02-14T10:41:51.074Z,45.38
2023-02-14T10:44:06.026Z,43.75
2023-02-14T10:46:19.883Z,42.33
2023-02-14T10:48:36.412Z,43.78
2023-02-14T10:52:59.274Z,41.58
2023-02-14T10:55:13.874Z,45.05
2023-02-14T10:57:23.747Z,41.67
2023-02-14T10:59:31.873Z,49.17
2023-02-14T11:01:35.743Z,44.03
2023-02-14T11:03:43.942Z,42.53
2023-02-14T11:05:48.748Z,46.55
2023-02-14T11:07:51.829Z,46.30
2023-02-14T11:09:54.621Z,51.05
2023-02-14T11:12:00.461Z,50.42
2023-02-14T11:16:34.973Z,46.78
2023-02-14T11:18:39.939Z,45.03
2023-02-14T11:22:45.399Z,42.65
2023-02-14T11:24:48.375Z,40.70
2023-02-14T11:26:52.959Z,50.08
2023-02-14T11:28:59.940Z,44.00
2023-02-14T11:31:03.692Z,45.78
2023-02-14T11:33:11.488Z,46.57
2023-02-14T11:35:24.174Z,49.72
2023-02-14T11:37:29.341Z,46.33
2023-02-14T11:39:34.790Z,47.28
2023-02-14T11:41:48.680Z,45.17
2023-02-14T11:43:53.101Z,47.50
2023-02-14T11:46:07.596Z,52.80
2023-02-14T11:48:22.349Z,51.07
2023-02-14T11:50:34.146Z,51.70
2023-02-14T11:52:49.000Z,50.03
2023-02-14T11:54:51.834Z,47.10
2023-02-14T11:56:57.777Z,52.10
2023-02-14T11:59:03.977Z,54.47
2023-02-14T12:01:07.730Z,46.20
2023-02-14T12:03:20.355Z,45.50
2023-02-14T12:05:28.900Z,51.85
2023-02-14T12:07:35.262Z,52.90
2023-02-14T12:09:41.325Z,54.55
2023-02-14T12:11:56.002Z,48.70
2023-02-14T12:13:59.568Z,46.47
2023-02-14T12:16:03.785Z,46.08
2023-02-14T12:18:30.400Z,50.53
2023-02-14T12:20:42.927Z,50.40
2023-02-14T12:22:50.890Z,51.13
2023-02-14T12:25:03.178Z,48.05
2023-02-14T12:27:18.262Z,54.95
2023-02-14T12:29:26.223Z,49.22
2023-02-14T12:31:29.098Z,55.17
2023-02-14T12:33:33.267Z,44.17
2023-02-14T12:35:48.289Z,50.42
2023-02-14T12:38:04.816Z,52.40
2023-02-14T12:40:22.484Z,54.78
2023-02-14T12:42:43.093Z,56.60
2023-02-14T12:44:58.263Z,55.00
2023-02-14T12:47:14.439Z,58.30
2023-02-14T12:49:40.234Z,59.30
2023-02-14T12:51:50.353Z,54.08
2023-02-14T12:54:07.542Z,61.42
2023-02-14T12:56:19.318Z,57.83
2023-02-14T12:58:37.259Z,66.45
2023-02-14T13:00:50.037Z,61.08
2023-02-14T13:03:14.569Z,61.85
2023-02-14T13:05:25.863Z,57.63
2023-02-14T13:07:45.168Z,53.17
2023-02-14T13:09:55.197Z,53.95
2023-02-14T13:12:12.416Z,59.13
2023-02-14T13:14:39.715Z,57.95
2023-02-14T13:16:50.197Z,49.03
2023-02-14T13:18:58.578Z,50.70
2023-02-14T13:21:05.852Z,56.72
2023-02-14T13:23:14.505Z,51.47
2023-02-14T13:25:30.730Z,53.28
2023-02-14T13:27:39.967Z,57.85
2023-02-14T13:29:48.071Z,57.45
2023-02-14T13:31:52.761Z,52.10
2023-02-14T13:34:01.551Z,54.28
2023-02-14T13:36:09.266Z,63.50
2023-02-14T13:38:16.304Z,67.95
2023-02-14T13:40:21.998Z,62.53
2023-02-14T13:42:57.177Z,63.03
2023-02-14T13:45:00.006Z,58.03
2023-02-14T13:47:02.840Z,56.67
2023-02-14T13:49:25.225Z,63.90
2023-02-14T13:51:50.894Z,63.60
2023-02-14T13:53:53.704Z,58.47
2023-02-14T13:55:57.145Z,56.97
2023-02-14T13:58:04.571Z,62.70
2023-02-14T14:00:42.620Z,65.78
2023-02-14T14:02:46.694Z,68.57
2023-02-14T14:04:49.448Z,63.93
2023-02-14T14:07:18.929Z,65.93
2023-02-14T14:09:56.703Z,68.15
2023-02-14T14:12:00.665Z,64.30
2023-02-14T14:14:05.616Z,63.47
2023-02-14T14:18:42.759Z,56.55
2023-02-14T14:20:48.270Z,59.08
2023-02-14T14:22:55.112Z,52.65
2023-02-14T14:25:01.592Z,56.30
2023-02-14T14:27:07.412Z,54.92
2023-02-14T14:29:20.182Z,53.50
2023-02-14T14:31:23.170Z,56.90
2023-02-14T14:33:29.069Z,57.53
2023-02-14T14:35:31.827Z,54.75
2023-02-14T14:37:37.567Z,55.97
2023-02-14T14:39:41.784Z,56.55
2023-02-14T14:41:44.899Z,57.15
2023-02-14T14:43:48.425Z,54.65
2023-02-14T14:45:53.279Z,52.85
2023-02-14T14:50:07.945Z,57.10
2023-02-14T14:52:25.553Z,61.95
2023-02-14T14:54:30.046Z,58.13
2023-02-14T14:56:36.945Z,52.90
2023-02-14T14:58:41.769Z,56.97
2023-02-14T15:00:52.601Z,54.20
2023-02-14T15:03:01.718Z,57.08
2023-02-14T15:05:24.108Z,56.83
2023-02-14T15:07:30.120Z,56.15
2023-02-14T15:09:34.447Z,58.42
2023-02-14T15:11:57.531Z,62.85
2023-02-14T15:14:01.494Z,67.88
2023-02-14T15:16:04.586Z,60.42
2023-02-14T15:18:08.142Z,54.47
2023-02-14T15:20:17.594Z,57.85
2023-02-14T15:22:22.512Z,57.58
2023-02-14T15:24:26.754Z,56.90
2023-02-14T15:26:31.435Z,58.67
2023-02-14T15:28:38.513Z,56.17
2023-02-14T15:30:44.137Z,56.75
2023-02-14T15:32:49.334Z,52.85
2023-02-14T15:34:53.616Z,54.08
2023-02-14T15:37:03.500Z,53.35
2023-02-14T15:39:09.451Z,62.75
2023-02-14T15:41:14.197Z,54.92
2023-02-14T15:43:27.605Z,65.20
2023-02-14T15:45:32.286Z,59.42
2023-02-14T15:47:35.170Z,64.45
2023-02-14T15:49:41.112Z,63.00
2023-02-14T15:51:44.304Z,62.47
2023-02-14T15:53:52.221Z,66.45
2023-02-14T15:55:56.253Z,65.60
2023-02-14T15:58:01.549Z,59.87
2023-02-14T16:00:11.612Z,67.10
2023-02-14T16:02:28.414Z,78.47
2023-02-14T16:04:33.418Z,72.28
2023-02-14T16:06:39.124Z,63.78
2023-02-14T16:08:42.157Z,61.63
2023-02-14T16:10:59.999Z,62.17
2023-02-14T16:13:06.473Z,69.57
2023-02-14T16:15:20.120Z,66.90
2023-02-14T16:17:34.477Z,91.50
2023-02-14T16:19:39.486Z,99.47
2023-02-14T16:21:56.391Z,105.68
2023-02-14T16:24:12.497Z,80.88
2023-02-14T16:26:15.809Z,92.57
2023-02-14T16:28:19.075Z,105.88
2023-02-14T16:30:22.382Z,103.63
2023-02-14T16:32:25.435Z,108.30
2023-02-14T16:34:29.876Z,104.30
2023-02-14T16:36:51.838Z,101.50
2023-02-14T16:39:16.443Z,99.95
2023-02-14T16:41:43.962Z,108.03
2023-02-14T16:43:47.817Z,100.18
2023-02-14T16:45:50.657Z,101.57
2023-02-14T16:47:53.509Z,79.93
2023-02-14T16:49:57.688Z,72.20
2023-02-14T16:52:00.496Z,73.10
2023-02-14T16:54:06.275Z,82.45
2023-02-14T16:56:14.685Z,74.93
2023-02-14T16:58:19.443Z,67.32
2023-02-14T17:00:23.416Z,66.55
2023-02-14T17:02:28.087Z,70.70
2023-02-14T17:04:30.957Z,72.25
2023-02-14T17:06:39.559Z,71.40
2023-02-14T17:08:43.197Z,75.10
2023-02-14T17:10:48.431Z,106.13
2023-02-14T17:12:52.376Z,90.47
2023-02-14T17:14:59.568Z,77.63
2023-02-14T17:17:02.645Z,68.25
2023-02-14T17:19:05.528Z,67.90
2023-02-14T17:21:08.405Z,68.60
2023-02-14T17:23:12.548Z,69.72
2023-02-14T17:25:15.399Z,65.18
2023-02-14T17:27:18.216Z,63.58
2023-02-14T17:29:21.063Z,62.78
2023-02-14T17:31:23.890Z,69.70
2023-02-14T17:33:26.963Z,67.68
2023-02-14T17:35:29.952Z,67.03
2023-02-14T17:37:33.198Z,69.13
2023-02-14T17:39:37.383Z,66.97
2023-02-14T17:41:40.562Z,70.35
2023-02-14T17:43:43.976Z,70.55
2023-02-14T17:45:46.728Z,78.40
2023-02-14T17:47:50.116Z,67.32
2023-02-14T17:49:52.878Z,76.45
2023-02-14T17:51:56.375Z,81.10
2023-02-14T17:53:59.165Z,78.28
2023-02-14T17:56:06.816Z,83.05
2023-02-14T17:58:09.614Z,84.78
2023-02-14T18:00:14.206Z,79.22
2023-02-14T18:02:16.987Z,102.40
2023-02-14T18:04:19.790Z,77.97
2023-02-14T18:06:22.940Z,91.32
2023-02-14T18:08:28.647Z,98.40
2023-02-14T18:10:31.486Z,110.80
2023-02-14T18:12:35.803Z,115.10
2023-02-14T18:14:38.635Z,121.68
2023-02-14T18:16:41.565Z,124.78
2023-02-14T18:18:44.595Z,103.47
2023-02-14T18:20:53.913Z,117.80
2023-02-14T18:22:56.668Z,114.35
2023-02-14T18:24:59.623Z,118.53
2023-02-14T18:27:02.832Z,122.85
2023-02-14T18:29:07.937Z,127.53
2023-02-14T18:31:13.171Z,138.15
2023-02-14T18:33:17.715Z,144.57
2023-02-14T18:35:21.125Z,147.93
2023-02-14T18:37:23.999Z,159.23
2023-02-14T18:39:26.845Z,173.65
2023-02-14T18:41:30.521Z,155.48
2023-02-14T18:43:33.577Z,163.38
2023-02-14T18:45:39.196Z,147.73
2023-02-14T18:47:41.973Z,148.82
2023-02-14T18:49:44.770Z,162.13
2023-02-14T18:51:48.952Z,146.20
2023-02-14T18:53:52.769Z,153.68
2023-02-14T18:55:55.663Z,149.80
2023-02-14T18:57:58.506Z,146.32
2023-02-14T19:00:06.478Z,163.90
2023-02-14T19:02:11.249Z,154.25
2023-02-14T19:04:17.004Z,171.65
2023-02-14T19:06:20.644Z,162.70
2023-02-14T19:08:23.445Z,154.02
2023-02-14T19:10:26.217Z,155.52
2023-02-14T19:12:31.973Z,163.13
2023-02-14T19:14:34.822Z,159.95
2023-02-14T19:16:39.325Z,159.65
2023-02-14T19:18:43.793Z,159.57
2023-02-14T19:20:46.615Z,162.77
2023-02-14T19:22:49.633Z,179.50
2023-02-14T19:24:53.367Z,161.05
2023-02-14T19:26:57.586Z,177.70
2023-02-14T19:29:02.303Z,164.88
2023-02-14T19:31:05.168Z,177.23
2023-02-14T19:33:08.008Z,161.52
2023-02-14T19:35:12.112Z,160.95
2023-02-14T19:37:14.897Z,160.63
2023-02-14T19:39:18.955Z,163.73
2023-02-14T19:41:23.999Z,170.90
2023-02-14T19:43:26.799Z,167.43
2023-02-14T19:45:32.445Z,164.10
2023-02-14T19:47:46.742Z,158.95
2023-02-14T19:49:50.302Z,160.35
2023-02-14T19:51:54.694Z,156.35
2023-02-14T19:53:59.082Z,167.27
2023-02-14T19:56:02.075Z,164.88
2023-02-14T19:58:05.400Z,177.73
2023-02-14T20:00:10.970Z,167.77
2023-02-14T20:02:19.826Z,170.95
2023-02-14T20:04:24.387Z,186.15
2023-02-14T20:06:29.165Z,182.43
2023-02-14T20:08:33.311Z,149.55
2023-02-14T20:10:36.128Z,141.75
2023-02-14T20:12:39.279Z,158.15
2023-02-14T20:14:50.896Z,162.85
2023-02-14T20:16:56.454Z,147.57
2023-02-14T20:19:01.465Z,174.23
2023-02-14T20:23:07.015Z,172.93
2023-02-14T20:25:11.762Z,173.13
2023-02-14T20:27:14.658Z,170.07
2023-02-14T20:29:18.558Z,196.38
2023-02-14T20:31:21.787Z,152.23
2023-02-14T20:33:24.623Z,179.65
2023-02-14T20:35:27.466Z,210.70
2023-02-14T20:37:30.472Z,168.30
2023-02-14T20:39:34.953Z,163.10
2023-02-14T20:41:39.281Z,157.35
2023-02-14T20:43:42.085Z,153.18
2023-02-14T20:45:45.780Z,128.27
2023-02-14T20:47:49.022Z,116.63
2023-02-14T20:49:51.796Z,141.45
2023-02-14T20:51:55.937Z,142.90
2023-02-14T20:53:58.703Z,159.50
2023-02-14T20:56:01.506Z,167.60
2023-02-14T20:58:05.646Z,162.75
2023-02-14T21:00:10.521Z,150.27
2023-02-14T21:02:13.379Z,156.43
2023-02-14T21:04:16.641Z,181.10
2023-02-14T21:06:22.154Z,148.32
2023-02-14T21:08:24.928Z,160.32
2023-02-14T21:10:28.251Z,182.35
2023-02-14T21:12:31.061Z,184.05
2023-02-14T21:14:35.199Z,193.73
2023-02-14T21:16:38.014Z,229.85
2023-02-14T21:18:40.752Z,209.10
2023-02-14T21:20:43.690Z,249.50
2023-02-14T21:22:46.445Z,174.77
2023-02-14T21:24:49.312Z,137.85
2023-02-14T21:26:52.118Z,160.15
2023-02-14T21:28:54.912Z,120.97
2023-02-14T21:31:05.164Z,149.55
2023-02-14T21:33:08.222Z,177.02
2023-02-14T21:35:11.168Z,141.80
2023-02-14T21:37:13.921Z,153.85
2023-02-14T21:39:16.858Z,125.30
2023-02-14T21:41:22.555Z,121.00
2023-02-14T21:43:25.334Z,117.00
2023-02-14T21:45:45.049Z,112.13
2023-02-14T21:48:09.215Z,134.90
2023-02-14T21:50:29.731Z,161.93
2023-02-14T21:52:32.526Z,168.65
2023-02-14T21:54:35.294Z,151.60
2023-02-14T21:56:39.845Z,138.20
2023-02-14T21:58:42.630Z,134.63
2023-02-14T22:00:46.012Z,104.88
2023-02-14T22:02:50.212Z,95.78
2023-02-14T22:04:52.977Z,92.88
2023-02-14T22:06:57.054Z,102.97
2023-02-14T22:09:01.070Z,115.38
2023-02-14T22:11:06.740Z,92.90
2023-02-14T22:13:09.540Z,121.88
2023-02-14T22:15:12.344Z,142.70
2023-02-14T22:17:15.304Z,92.57
2023-02-14T22:19:19.460Z,112.13
2023-02-14T22:21:24.173Z,86.20
2023-02-14T22:23:28.985Z,95.95
2023-02-14T22:27:39.011Z,98.03
2023-02-14T22:29:41.816Z,94.28
2023-02-14T22:31:45.095Z,101.30
2023-02-14T22:33:49.239Z,86.85
2023-02-14T22:35:56.785Z,98.75
2023-02-14T22:37:59.669Z,97.63
2023-02-14T22:40:02.486Z,85.90
2023-02-14T22:42:06.836Z,82.63
2023-02-14T22:44:09.756Z,82.75
2023-02-14T22:46:14.879Z,102.28
2023-02-14T22:48:18.646Z,159.23
2023-02-14T22:50:21.358Z,96.13
2023-02-14T22:52:25.525Z,115.30
2023-02-14T22:54:28.248Z,157.02
2023-02-14T22:56:34.238Z,134.90
2023-02-14T22:58:37.046Z,145.77
2023-02-14T23:00:39.911Z,130.57
2023-02-14T23:02:42.747Z,112.53
2023-02-14T23:04:45.582Z,108.22
2023-02-14T23:06:49.048Z,175.00
2023-02-14T23:08:53.703Z,137.50
2023-02-14T23:10:56.463Z,154.93
2023-02-14T23:13:16.807Z,210.95
2023-02-14T23:15:37.104Z,135.00
2023-02-14T23:17:57.406Z,239.38
2023-02-14T23:20:17.819Z,97.55
2023-02-14T23:22:22.447Z,126.70
2023-02-14T23:24:26.656Z,113.10
2023-02-14T23:26:29.507Z,150.45
2023-02-14T23:28:32.321Z,106.20
2023-02-14T23:30:35.128Z,93.75
2023-02-14T23:32:38.159Z,163.23
2023-02-14T23:34:43.342Z,148.77
2023-02-14T23:36:46.352Z,122.60
2023-02-14T23:38:49.119Z,137.82
2023-02-14T23:41:10.669Z,112.30
2023-02-14T23:43:13.385Z,148.63
2023-02-14T23:45:33.814Z,102.28
2023-02-14T23:47:36.595Z,125.82
2023-02-14T23:49:40.995Z,164.02
2023-02-14T23:51:44.884Z,97.95
2023-02-14T23:53:47.771Z,86.07
2023-02-14T23:55:50.528Z,107.10
2023-02-14T23:57:54.661Z,157.07
2023-02-14T23:59:57.456Z,108.57
